sensor_id;sensor_type;location;lat;lon;timestamp;temperature;humidity
65087;DHT22;52094;51.234;-2.310;2022-08-04T00:07:15;17.10;70.50
65087;DHT22;52094;51.234;-2.310;2022-08-04T00:11:31;17.00;69.90
65087;DHT22;52094;51.234;-2.310;2022-08-04T01:17:58;15.70;72.70
65087;DHT22;52094;51.234;-2.310;2022-08-04T01:27:12;15.50;73.60
65087;DHT22;52094;51.234;-2.310;2022-08-04T01:46:41;15.30;74.30
65087;DHT22;52094;51.234;-2.310;2022-08-04T01:55:37;15.50;74.70
65087;DHT22;52094;51.234;-2.310;2022-08-04T02:00:26;15.50;72.50
65087;DHT22;52094;51.234;-2.310;2022-08-04T02:04:50;15.40;74.00
65087;DHT22;52094;51.234;-2.310;2022-08-04T02:09:16;15.30;71.80
65087;DHT22;52094;51.234;-2.310;2022-08-04T02:33:18;14.80;74.50
65087;DHT22;52094;51.234;-2.310;2022-08-04T02:42:48;15.00;75.40
65087;DHT22;52094;51.234;-2.310;2022-08-04T02:47:33;15.00;74.90
65087;DHT22;52094;51.234;-2.310;2022-08-04T03:31:31;14.60;74.50
65087;DHT22;52094;51.234;-2.310;2022-08-04T03:53:40;14.40;76.00
65087;DHT22;52094;51.234;-2.310;2022-08-04T04:31:07;14.20;75.40
65087;DHT22;52094;51.234;-2.310;2022-08-04T04:44:49;14.30;77.00
65087;DHT22;52094;51.234;-2.310;2022-08-04T04:53:50;14.50;77.30
65087;DHT22;52094;51.234;-2.310;2022-08-04T04:57:44;14.60;77.00
65087;DHT22;52094;51.234;-2.310;2022-08-04T05:14:30;14.90;78.30
65087;DHT22;52094;51.234;-2.310;2022-08-04T05:18:31;15.20;78.60
65087;DHT22;52094;51.234;-2.310;2022-08-04T05:27:25;15.40;77.20
65087;DHT22;52094;51.234;-2.310;2022-08-04T05:31:31;15.50;76.80
65087;DHT22;52094;51.234;-2.310;2022-08-04T05:35:35;15.50;76.50
65087;DHT22;52094;51.234;-2.310;2022-08-04T05:39:53;15.50;75.80
65087;DHT22;52094;51.234;-2.310;2022-08-04T05:43:44;15.60;75.70
65087;DHT22;52094;51.234;-2.310;2022-08-04T05:48:19;15.60;75.80
65087;DHT22;52094;51.234;-2.310;2022-08-04T05:52:25;15.70;76.00
65087;DHT22;52094;51.234;-2.310;2022-08-04T05:56:21;15.90;77.10
65087;DHT22;52094;51.234;-2.310;2022-08-04T06:00:26;16.00;76.50
65087;DHT22;52094;51.234;-2.310;2022-08-04T06:05:06;16.20;76.60
65087;DHT22;52094;51.234;-2.310;2022-08-04T06:09:17;16.50;78.00
65087;DHT22;52094;51.234;-2.310;2022-08-04T06:13:28;16.80;77.30
65087;DHT22;52094;51.234;-2.310;2022-08-04T06:22:17;17.50;75.90
65087;DHT22;52094;51.234;-2.310;2022-08-04T06:26:35;17.70;77.10
65087;DHT22;52094;51.234;-2.310;2022-08-04T06:30:45;18.00;75.30
65087;DHT22;52094;51.234;-2.310;2022-08-04T06:34:38;18.10;74.40
65087;DHT22;52094;51.234;-2.310;2022-08-04T06:38:39;18.20;75.30
65087;DHT22;52094;51.234;-2.310;2022-08-04T06:43:05;18.40;74.20
65087;DHT22;52094;51.234;-2.310;2022-08-04T06:46:53;18.80;77.10
65087;DHT22;52094;51.234;-2.310;2022-08-04T06:51:23;19.70;81.70
65087;DHT22;52094;51.234;-2.310;2022-08-04T06:55:32;20.30;77.10
65087;DHT22;52094;51.234;-2.310;2022-08-04T07:04:40;21.30;74.10
65087;DHT22;52094;51.234;-2.310;2022-08-04T07:09:21;22.10;74.00
65087;DHT22;52094;51.234;-2.310;2022-08-04T07:13:37;23.20;71.30
65087;DHT22;52094;51.234;-2.310;2022-08-04T07:17:54;24.40;73.70
65087;DHT22;52094;51.234;-2.310;2022-08-04T07:22:08;25.20;71.90
65087;DHT22;52094;51.234;-2.310;2022-08-04T07:32:02;26.10;63.10
65087;DHT22;52094;51.234;-2.310;2022-08-04T07:36:40;26.00;63.20
65087;DHT22;52094;51.234;-2.310;2022-08-04T07:41:18;26.20;61.90
65087;DHT22;52094;51.234;-2.310;2022-08-04T07:46:01;26.00;60.30
65087;DHT22;52094;51.234;-2.310;2022-08-04T07:50:04;25.70;59.80
65087;DHT22;52094;51.234;-2.310;2022-08-04T08:09:48;24.30;61.10
65087;DHT22;52094;51.234;-2.310;2022-08-04T08:25:43;23.70;60.80
65087;DHT22;52094;51.234;-2.310;2022-08-04T08:30:11;23.40;60.10
65087;DHT22;52094;51.234;-2.310;2022-08-04T08:59:15;24.90;60.80
65087;DHT22;52094;51.234;-2.310;2022-08-04T11:07:14;37.20;35.10
65087;DHT22;52094;51.234;-2.310;2022-08-04T11:15:51;36.30;37.60
65087;DHT22;52094;51.234;-2.310;2022-08-04T11:45:03;33.20;37.30
65087;DHT22;52094;51.234;-2.310;2022-08-04T11:58:51;31.30;35.30
65087;DHT22;52094;51.234;-2.310;2022-08-04T12:22:45;29.50;37.50
65087;DHT22;52094;51.234;-2.310;2022-08-04T12:31:59;29.80;35.10
65087;DHT22;52094;51.234;-2.310;2022-08-04T12:41:03;30.50;35.10
65087;DHT22;52094;51.234;-2.310;2022-08-04T12:45:49;31.30;36.10
65087;DHT22;52094;51.234;-2.310;2022-08-04T12:50:13;31.60;33.60
65087;DHT22;52094;51.234;-2.310;2022-08-04T12:54:31;31.70;33.50
65087;DHT22;52094;51.234;-2.310;2022-08-04T13:03:23;31.70;33.00
65087;DHT22;52094;51.234;-2.310;2022-08-04T13:08:07;31.10;35.70
65087;DHT22;52094;51.234;-2.310;2022-08-04T13:12:16;30.50;32.90
65087;DHT22;52094;51.234;-2.310;2022-08-04T13:16:39;30.20;33.70
65087;DHT22;52094;51.234;-2.310;2022-08-04T13:20:39;29.60;33.60
65087;DHT22;52094;51.234;-2.310;2022-08-04T13:24:36;29.50;36.80
65087;DHT22;52094;51.234;-2.310;2022-08-04T13:29:09;29.30;36.20
65087;DHT22;52094;51.234;-2.310;2022-08-04T13:37:33;29.10;34.60
65087;DHT22;52094;51.234;-2.310;2022-08-04T13:41:54;29.00;36.30
65087;DHT22;52094;51.234;-2.310;2022-08-04T13:50:50;28.90;35.10
65087;DHT22;52094;51.234;-2.310;2022-08-04T13:59:24;28.80;35.50
65087;DHT22;52094;51.234;-2.310;2022-08-04T14:04:01;28.40;35.50
65087;DHT22;52094;51.234;-2.310;2022-08-04T14:08:23;28.00;36.20
65087;DHT22;52094;51.234;-2.310;2022-08-04T14:12:20;27.70;37.30
65087;DHT22;52094;51.234;-2.310;2022-08-04T14:21:19;27.30;37.60
65087;DHT22;52094;51.234;-2.310;2022-08-04T14:25:33;27.40;37.80
65087;DHT22;52094;51.234;-2.310;2022-08-04T14:29:40;27.50;37.90
65087;DHT22;52094;51.234;-2.310;2022-08-04T14:33:36;27.50;37.00
65087;DHT22;52094;51.234;-2.310;2022-08-04T14:37:55;27.50;37.30
65087;DHT22;52094;51.234;-2.310;2022-08-04T14:41:52;27.40;37.00
65087;DHT22;52094;51.234;-2.310;2022-08-04T14:46:08;27.40;38.20
65087;DHT22;52094;51.234;-2.310;2022-08-04T14:50:45;27.30;36.50
65087;DHT22;52094;51.234;-2.310;2022-08-04T14:55:33;27.30;37.80
65087;DHT22;52094;51.234;-2.310;2022-08-04T15:00:05;27.20;36.50
65087;DHT22;52094;51.234;-2.310;2022-08-04T15:04:12;26.90;37.20
65087;DHT22;52094;51.234;-2.310;2022-08-04T15:08:09;26.70;38.20
65087;DHT22;52094;51.234;-2.310;2022-08-04T15:12:14;26.50;38.70
65087;DHT22;52094;51.234;-2.310;2022-08-04T15:16:35;26.60;38.80
65087;DHT22;52094;51.234;-2.310;2022-08-04T15:21:07;26.70;38.10
65087;DHT22;52094;51.234;-2.310;2022-08-04T15:30:23;26.70;37.70
65087;DHT22;52094;51.234;-2.310;2022-08-04T15:35:12;26.70;37.40
65087;DHT22;52094;51.234;-2.310;2022-08-04T15:39:21;26.70;36.80
65087;DHT22;52094;51.234;-2.310;2022-08-04T15:48:37;26.40;37.70
65087;DHT22;52094;51.234;-2.310;2022-08-04T15:53:14;26.30;38.70
65087;DHT22;52094;51.234;-2.310;2022-08-04T16:08:00;26.30;37.70
65087;DHT22;52094;51.234;-2.310;2022-08-04T16:12:08;26.30;37.10
65087;DHT22;52094;51.234;-2.310;2022-08-04T16:20:48;26.20;38.30
65087;DHT22;52094;51.234;-2.310;2022-08-04T16:24:58;26.20;37.90
65087;DHT22;52094;51.234;-2.310;2022-08-04T16:34:06;26.30;37.20
65087;DHT22;52094;51.234;-2.310;2022-08-04T16:38:16;26.20;37.50
65087;DHT22;52094;51.234;-2.310;2022-08-04T16:42:34;26.20;38.40
65087;DHT22;52094;51.234;-2.310;2022-08-04T16:51:09;26.20;36.80
65087;DHT22;52094;51.234;-2.310;2022-08-04T17:00:03;26.20;36.70
65087;DHT22;52094;51.234;-2.310;2022-08-04T17:03:53;26.10;36.10
65087;DHT22;52094;51.234;-2.310;2022-08-04T17:08:10;26.00;37.10
65087;DHT22;52094;51.234;-2.310;2022-08-04T17:12:13;25.90;37.40
65087;DHT22;52094;51.234;-2.310;2022-08-04T17:16:14;25.70;37.50
65087;DHT22;52094;51.234;-2.310;2022-08-04T17:20:28;25.70;37.50
65087;DHT22;52094;51.234;-2.310;2022-08-04T17:25:02;25.60;36.70
65087;DHT22;52094;51.234;-2.310;2022-08-04T17:29:02;25.40;36.60
65087;DHT22;52094;51.234;-2.310;2022-08-04T17:32:58;25.20;37.70
65087;DHT22;52094;51.234;-2.310;2022-08-04T17:36:54;25.20;37.20
65087;DHT22;52094;51.234;-2.310;2022-08-04T17:41:04;25.10;37.80
65087;DHT22;52094;51.234;-2.310;2022-08-04T17:45:39;25.00;37.70
65087;DHT22;52094;51.234;-2.310;2022-08-04T17:49:47;24.90;37.30
65087;DHT22;52094;51.234;-2.310;2022-08-04T17:53:34;24.90;38.10
65087;DHT22;52094;51.234;-2.310;2022-08-04T17:57:47;24.90;38.10
65087;DHT22;52094;51.234;-2.310;2022-08-04T18:01:56;24.90;37.90
65087;DHT22;52094;51.234;-2.310;2022-08-04T18:06:34;24.90;36.80
65087;DHT22;52094;51.234;-2.310;2022-08-04T18:11:06;24.90;36.40
65087;DHT22;52094;51.234;-2.310;2022-08-04T18:15:47;24.90;36.80
65087;DHT22;52094;51.234;-2.310;2022-08-04T18:19:36;24.80;36.50
65087;DHT22;52094;51.234;-2.310;2022-08-04T18:23:56;24.70;37.50
65087;DHT22;52094;51.234;-2.310;2022-08-04T18:28:43;24.50;36.80
65087;DHT22;52094;51.234;-2.310;2022-08-04T18:32:42;24.30;36.90
65087;DHT22;52094;51.234;-2.310;2022-08-04T18:36:38;24.00;37.60
65087;DHT22;52094;51.234;-2.310;2022-08-04T18:40:42;23.70;37.70
65087;DHT22;52094;51.234;-2.310;2022-08-04T18:44:41;23.50;38.00
65087;DHT22;52094;51.234;-2.310;2022-08-04T18:48:49;23.30;38.10
65087;DHT22;52094;51.234;-2.310;2022-08-04T18:53:12;23.10;38.20
65087;DHT22;52094;51.234;-2.310;2022-08-04T18:57:22;22.90;38.50
65087;DHT22;52094;51.234;-2.310;2022-08-04T19:01:29;22.60;38.70
65087;DHT22;52094;51.234;-2.310;2022-08-04T19:05:45;22.50;38.90
65087;DHT22;52094;51.234;-2.310;2022-08-04T19:14:24;22.10;39.50
65087;DHT22;52094;51.234;-2.310;2022-08-04T19:18:13;21.90;39.60
65087;DHT22;52094;51.234;-2.310;2022-08-04T19:22:05;21.70;39.90
65087;DHT22;52094;51.234;-2.310;2022-08-04T19:26:15;21.60;40.10
65087;DHT22;52094;51.234;-2.310;2022-08-04T19:30:09;21.40;40.60
65087;DHT22;52094;51.234;-2.310;2022-08-04T19:34:18;21.20;40.50
65087;DHT22;52094;51.234;-2.310;2022-08-04T19:38:40;21.00;41.70
65087;DHT22;52094;51.234;-2.310;2022-08-04T19:42:29;20.70;41.00
65087;DHT22;52094;51.234;-2.310;2022-08-04T19:46:16;20.50;41.30
65087;DHT22;52094;51.234;-2.310;2022-08-04T19:50:16;20.30;41.60
65087;DHT22;52094;51.234;-2.310;2022-08-04T19:54:26;20.20;41.80
65087;DHT22;52094;51.234;-2.310;2022-08-04T19:58:24;19.90;43.80
65087;DHT22;52094;51.234;-2.310;2022-08-04T20:02:10;19.70;42.30
65087;DHT22;52094;51.234;-2.310;2022-08-04T20:06:09;19.60;42.60
65087;DHT22;52094;51.234;-2.310;2022-08-04T20:10:21;19.40;42.90
65087;DHT22;52094;51.234;-2.310;2022-08-04T20:14:09;19.30;44.00
65087;DHT22;52094;51.234;-2.310;2022-08-04T20:18:16;19.20;43.40
65087;DHT22;52094;51.234;-2.310;2022-08-04T20:22:24;19.10;43.60
65087;DHT22;52094;51.234;-2.310;2022-08-04T20:26:51;18.90;43.80
65087;DHT22;52094;51.234;-2.310;2022-08-04T20:31:27;18.90;44.10
65087;DHT22;52094;51.234;-2.310;2022-08-04T20:39:57;18.70;44.80
65087;DHT22;52094;51.234;-2.310;2022-08-04T20:44:14;18.60;44.70
65087;DHT22;52094;51.234;-2.310;2022-08-04T20:48:32;18.50;47.00
65087;DHT22;52094;51.234;-2.310;2022-08-04T20:52:29;18.40;45.60
65087;DHT22;52094;51.234;-2.310;2022-08-04T20:56:38;18.30;45.50
65087;DHT22;52094;51.234;-2.310;2022-08-04T21:11:39;18.20;45.80
65087;DHT22;52094;51.234;-2.310;2022-08-04T21:16:01;18.00;47.60
65087;DHT22;52094;51.234;-2.310;2022-08-04T21:20:26;17.90;49.10
65087;DHT22;52094;51.234;-2.310;2022-08-04T21:24:15;17.90;47.10
65087;DHT22;52094;51.234;-2.310;2022-08-04T21:28:15;17.80;46.20
65087;DHT22;52094;51.234;-2.310;2022-08-04T21:32:07;17.70;46.40
65087;DHT22;52094;51.234;-2.310;2022-08-04T21:35:54;17.60;46.60
65087;DHT22;52094;51.234;-2.310;2022-08-04T21:39:56;17.50;46.80
65087;DHT22;52094;51.234;-2.310;2022-08-04T21:44:16;17.40;47.20
65087;DHT22;52094;51.234;-2.310;2022-08-04T21:48:07;17.30;47.10
65087;DHT22;52094;51.234;-2.310;2022-08-04T21:52:05;17.20;47.70
65087;DHT22;52094;51.234;-2.310;2022-08-04T21:56:06;17.00;47.80
65087;DHT22;52094;51.234;-2.310;2022-08-04T22:00:20;16.90;47.80
65087;DHT22;52094;51.234;-2.310;2022-08-04T22:04:08;16.80;47.80
65087;DHT22;52094;51.234;-2.310;2022-08-04T22:08:07;16.70;47.80
65087;DHT22;52094;51.234;-2.310;2022-08-04T22:12:10;16.70;48.00
65087;DHT22;52094;51.234;-2.310;2022-08-04T22:16:16;16.50;48.10
65087;DHT22;52094;51.234;-2.310;2022-08-04T22:20:10;16.50;49.00
65087;DHT22;52094;51.234;-2.310;2022-08-04T22:24:15;16.30;48.60
65087;DHT22;52094;51.234;-2.310;2022-08-04T22:28:20;16.20;48.70
65087;DHT22;52094;51.234;-2.310;2022-08-04T22:32:21;16.20;48.80
65087;DHT22;52094;51.234;-2.310;2022-08-04T22:36:20;16.10;48.90
65087;DHT22;52094;51.234;-2.310;2022-08-04T22:40:21;16.00;49.20
65087;DHT22;52094;51.234;-2.310;2022-08-04T22:44:11;16.00;49.90
65087;DHT22;52094;51.234;-2.310;2022-08-04T22:48:13;16.00;49.00
65087;DHT22;52094;51.234;-2.310;2022-08-04T22:52:09;16.00;49.10
65087;DHT22;52094;51.234;-2.310;2022-08-04T22:56:11;16.00;49.20
65087;DHT22;52094;51.234;-2.310;2022-08-04T23:00:27;16.00;49.30
65087;DHT22;52094;51.234;-2.310;2022-08-04T23:04:33;16.00;50.20
65087;DHT22;52094;51.234;-2.310;2022-08-04T23:08:35;16.00;49.50
65087;DHT22;52094;51.234;-2.310;2022-08-04T23:12:40;16.00;49.50
65087;DHT22;52094;51.234;-2.310;2022-08-04T23:16:35;16.10;50.20
65087;DHT22;52094;51.234;-2.310;2022-08-04T23:25:02;16.20;49.90
65087;DHT22;52094;51.234;-2.310;2022-08-04T23:29:30;16.20;49.70
65087;DHT22;52094;51.234;-2.310;2022-08-04T23:33:54;16.20;49.70
65087;DHT22;52094;51.234;-2.310;2022-08-04T23:37:50;16.30;49.10
65087;DHT22;52094;51.234;-2.310;2022-08-04T23:42:00;16.30;49.00
65087;DHT22;52094;51.234;-2.310;2022-08-04T23:46:06;16.30;49.00
65087;DHT22;52094;51.234;-2.310;2022-08-04T23:50:15;16.30;49.10
65087;DHT22;52094;51.234;-2.310;2022-08-04T23:54:01;16.30;49.00
65087;DHT22;52094;51.234;-2.310;2022-08-04T23:57:54;16.30;49.00
